Time;durP1;ratioP1;P1;durP2;ratioP2;P2;SDS_P1;SDS_P2;PMS_P1;PMS_P2;Temp;Humidity;BMP_temperature;BMP_pressure;BME280_temperature;BME280_humidity;BME280_pressure;Samples;Min_cycle;Max_cycle;Signal;HPM_P1;HPM_P2
2023/03/15 00:02:13;;;;;;;9.07;2.15;;;2.40;99.90;;;;;;4970744;28;89572;-33
2023/03/15 00:04:40;;;;;;;3.67;2.30;;;2.40;99.90;;;;;;4970901;28;90291;-34
2023/03/15 00:07:06;;;;;;;3.38;2.47;;;2.40;99.90;;;;;;4942917;28;89145;-29
2023/03/15 00:09:31;;;;;;;3.65;1.63;;;2.40;99.90;;;;;;4970504;28;89945;-29
2023/03/15 00:11:57;;;;;;;12.55;2.92;;;2.40;99.90;;;;;;4959418;28;87555;-30
2023/03/15 00:14:22;;;;;;;5.32;2.35;;;2.40;99.90;;;;;;4960291;28;90235;-30
2023/03/15 00:16:48;;;;;;;4.15;2.10;;;2.40;99.90;;;;;;4959395;28;90198;-29
2023/03/15 00:19:14;;;;;;;3.22;2.17;;;2.30;99.90;;;;;;4959875;28;89452;-29
2023/03/15 00:21:42;;;;;;;3.65;2.50;;;2.30;99.90;;;;;;4959683;28;89336;-34
2023/03/15 00:24:11;;;;;;;4.63;1.92;;;2.30;99.90;;;;;;4959139;28;89827;-30
2023/03/15 00:26:37;;;;;;;6.05;3.28;;;2.40;99.90;;;;;;4961394;28;88542;-32
2023/03/15 00:29:03;;;;;;;3.72;2.72;;;2.40;99.90;;;;;;4978378;28;89179;-30
2023/03/15 00:31:29;;;;;;;4.03;2.78;;;2.40;99.90;;;;;;4964091;28;88856;-30
2023/03/15 00:33:55;;;;;;;5.55;2.65;;;2.30;99.90;;;;;;4967852;28;90345;-30
2023/03/15 00:36:22;;;;;;;8.98;3.28;;;;;;;;;;4964224;28;88532;-28
2023/03/15 00:38:49;;;;;;;3.17;2.83;;;2.30;99.90;;;;;;4959032;28;90555;-28
2023/03/15 00:41:16;;;;;;;3.85;2.55;;;2.30;99.90;;;;;;4959532;28;89119;-30
2023/03/15 00:43:42;;;;;;;6.18;2.63;;;2.40;99.90;;;;;;4959400;28;88737;-30
2023/03/15 00:46:08;;;;;;;4.07;2.33;;;2.30;99.90;;;;;;4961747;28;90626;-31
2023/03/15 00:48:36;;;;;;;2.33;2.13;;;2.30;99.90;;;;;;4969430;28;90190;-32
2023/03/15 00:51:10;;;;;;;6.78;3.33;;;2.30;99.90;;;;;;4958446;28;88870;-33
2023/03/15 00:53:37;;;;;;;2.80;1.80;;;2.30;99.90;;;;;;4969589;28;89784;-29
2023/03/15 00:56:05;;;;;;;4.57;2.95;;;2.30;99.90;;;;;;4959951;28;89844;-31
2023/03/15 00:58:30;;;;;;;3.15;2.20;;;2.30;99.90;;;;;;4959377;28;89899;-29
2023/03/15 01:00:56;;;;;;;4.18;1.85;;;2.30;99.90;;;;;;4958404;28;89791;-31
2023/03/15 01:03:22;;;;;;;8.60;3.20;;;2.40;99.90;;;;;;4958709;28;91331;-31
2023/03/15 01:05:47;;;;;;;3.17;2.40;;;2.40;99.90;;;;;;4958891;28;88750;-28
2023/03/15 01:08:13;;;;;;;2.03;1.75;;;2.40;99.90;;;;;;4958411;28;89601;-31
2023/03/15 01:10:38;;;;;;;3.47;2.13;;;2.40;99.90;;;;;;4959107;28;89833;-30
2023/03/15 01:13:06;;;;;;;2.83;1.98;;;2.30;99.90;;;;;;4959333;28;90153;-32
2023/03/15 01:15:31;;;;;;;3.28;1.52;;;2.30;99.90;;;;;;4958521;28;88418;-28
2023/03/15 01:17:57;;;;;;;6.90;2.75;;;2.30;99.90;;;;;;4941497;28;89707;-30
2023/03/15 01:20:22;;;;;;;5.82;1.90;;;2.20;99.90;;;;;;4962958;28;89348;-31
2023/03/15 01:22:48;;;;;;;1.88;1.23;;;2.30;99.90;;;;;;4966770;28;90627;-33
2023/03/15 01:25:14;;;;;;;6.20;2.00;;;2.20;99.90;;;;;;4971811;28;89490;-30
2023/03/15 01:27:39;;;;;;;2.42;1.50;;;2.20;99.90;;;;;;4958259;28;90068;-34
2023/03/15 01:30:06;;;;;;;2.30;1.60;;;2.20;99.90;;;;;;4941221;28;89225;-28
2023/03/15 01:32:31;;;;;;;2.00;1.77;;;2.20;99.90;;;;;;4958748;28;90153;-31
2023/03/15 01:34:57;;;;;;;12.25;4.05;;;2.10;99.90;;;;;;4958166;28;90310;-28
2023/03/15 01:37:23;;;;;;;4.47;2.30;;;2.20;99.90;;;;;;4958852;28;90124;-30
2023/03/15 01:39:49;;;;;;;4.47;1.77;;;2.10;99.90;;;;;;4962680;28;89134;-31
2023/03/15 01:42:15;;;;;;;5.25;1.83;;;2.10;99.90;;;;;;4967359;28;90647;-30
2023/03/15 01:44:56;;;;;;;1.95;1.80;;;2.10;99.90;;;;;;4971301;28;89486;-29
2023/03/15 01:47:24;;;;;;;2.55;1.80;;;2.00;99.90;;;;;;4971080;28;90323;-31
2023/03/15 01:49:57;;;;;;;5.95;2.15;;;2.00;99.90;;;;;;4956395;28;89275;-31
2023/03/15 01:52:29;;;;;;;4.00;1.80;;;2.00;99.90;;;;;;4958801;28;91110;-30
2023/03/15 01:55:04;;;;;;;2.58;2.38;;;2.00;99.90;;;;;;4967279;28;89993;-30
2023/03/15 01:57:38;;;;;;;5.50;3.13;;;2.00;99.90;;;;;;4961070;28;90027;-28
2023/03/15 02:00:17;;;;;;;6.97;2.05;;;2.00;99.90;;;;;;4958627;28;90320;-31
2023/03/15 02:02:49;;;;;;;5.07;1.73;;;2.00;99.90;;;;;;4971606;28;92262;-29
2023/03/15 02:05:27;;;;;;;2.15;1.10;;;1.90;99.90;;;;;;4957783;28;90213;-29
2023/03/15 02:07:54;;;;;;;4.60;1.48;;;1.90;99.90;;;;;;4958564;28;89555;-30
2023/03/15 02:10:27;;;;;;;3.63;1.50;;;1.90;99.90;;;;;;4958848;28;90149;-29
2023/03/15 02:12:55;;;;;;;7.47;2.35;;;1.90;99.90;;;;;;4953070;28;90893;-31
2023/03/15 02:15:21;;;;;;;4.00;1.38;;;2.00;99.90;;;;;;4963317;28;89367;-28
2023/03/15 02:17:48;;;;;;;4.65;2.00;;;2.00;99.90;;;;;;4961433;28;89433;-31
2023/03/15 02:20:29;;;;;;;5.13;1.50;;;2.00;99.90;;;;;;4961492;28;89263;-31
2023/03/15 02:23:16;;;;;;;4.65;1.73;;;2.00;99.90;;;;;;4961591;28;90070;-29
2023/03/15 02:25:58;;;;;;;5.70;1.73;;;2.00;99.90;;;;;;4970089;28;93009;-29
2023/03/15 02:28:24;;;;;;;4.63;1.73;;;2.00;99.90;;;;;;4966426;28;89348;-31
2023/03/15 02:30:50;;;;;;;1.88;1.17;;;2.00;99.90;;;;;;4971128;28;90135;-32
2023/03/15 02:33:31;;;;;;;2.22;1.30;;;1.90;99.90;;;;;;4961009;28;90492;-33
2023/03/15 02:36:08;;;;;;;3.08;1.15;;;2.00;99.90;;;;;;4961316;28;90065;-30
2023/03/15 02:38:34;;;;;;;3.83;1.50;;;2.00;99.90;;;;;;4961578;28;90522;-30
2023/03/15 02:41:00;;;;;;;3.55;1.55;;;1.90;99.90;;;;;;4961549;28;88542;-31
2023/03/15 02:43:29;;;;;;;2.33;1.38;;;1.90;99.90;;;;;;4960253;28;90575;-31
2023/03/15 02:45:55;;;;;;;6.07;1.45;;;1.80;99.90;;;;;;4960647;28;89882;-31
2023/03/15 02:48:21;;;;;;;6.32;1.77;;;1.80;99.90;;;;;;4961563;28;89643;-29
2023/03/15 02:50:47;;;;;;;3.70;2.28;;;1.70;99.90;;;;;;4959351;28;90246;-29
2023/03/15 02:53:12;;;;;;;3.45;2.35;;;1.70;99.90;;;;;;4960798;28;90101;-33
2023/03/15 02:55:38;;;;;;;3.40;1.15;;;1.70;99.90;;;;;;4961948;28;90326;-29
2023/03/15 02:58:04;;;;;;;3.83;1.73;;;1.70;99.90;;;;;;4972002;28;90206;-28
2023/03/15 03:00:29;;;;;;;4.50;2.55;;;1.70;99.90;;;;;;4961229;28;89345;-31
2023/03/15 03:02:55;;;;;;;2.90;1.10;;;1.70;99.90;;;;;;4960306;28;90604;-32
2023/03/15 03:05:21;;;;;;;2.55;1.38;;;1.60;99.90;;;;;;4960450;28;90173;-30
2023/03/15 03:07:49;;;;;;;11.50;1.90;;;1.60;99.90;;;;;;4969557;28;89224;-28
2023/03/15 03:10:16;;;;;;;7.60;1.63;;;1.60;99.90;;;;;;4965486;28;89758;-28
2023/03/15 03:12:42;;;;;;;9.90;2.53;;;1.50;99.90;;;;;;4960248;28;90179;-30
2023/03/15 03:15:10;;;;;;;10.57;2.40;;;1.60;99.90;;;;;;4960198;28;91117;-30
2023/03/15 03:17:36;;;;;;;1.67;1.48;;;1.50;99.90;;;;;;4969789;28;90301;-28
2023/03/15 03:20:12;;;;;;;3.70;1.17;;;1.50;99.90;;;;;;4964019;28;88214;-31
2023/03/15 03:22:39;;;;;;;5.60;1.77;;;1.50;99.90;;;;;;4959915;28;89803;-31
2023/03/15 03:25:06;;;;;;;5.63;1.75;;;1.50;99.90;;;;;;4959261;28;89752;-31
2023/03/15 03:27:35;;;;;;;4.53;1.67;;;1.40;99.90;;;;;;4960566;28;88185;-30
2023/03/15 03:30:03;;;;;;;4.15;1.85;;;1.40;99.90;;;;;;4960178;28;89034;-29
2023/03/15 03:32:28;;;;;;;11.27;2.35;;;1.40;99.90;;;;;;4960571;28;89740;-29
2023/03/15 03:34:54;;;;;;;4.75;1.55;;;1.40;99.90;;;;;;4960450;28;89807;-31
2023/03/15 03:37:20;;;;;;;9.35;1.90;;;1.40;99.90;;;;;;4960456;28;89430;-30
2023/03/15 03:39:46;;;;;;;2.72;1.38;;;1.30;99.90;;;;;;4960145;28;88635;-31
2023/03/15 03:42:13;;;;;;;3.88;1.95;;;1.30;99.90;;;;;;4960152;28;90299;-28
2023/03/15 03:44:39;;;;;;;1.70;1.42;;;1.20;99.90;;;;;;4959607;28;88609;-30
2023/03/15 03:47:04;;;;;;;3.42;1.30;;;1.20;99.90;;;;;;4960766;28;89675;-29
2023/03/15 03:49:30;;;;;;;2.30;1.35;;;1.20;99.90;;;;;;4959789;28;87992;-30
2023/03/15 03:51:56;;;;;;;2.00;1.42;;;1.10;99.90;;;;;;4959933;28;90311;-28
2023/03/15 03:54:21;;;;;;;3.90;1.40;;;1.10;99.90;;;;;;4959971;28;89665;-31
2023/03/15 03:56:48;;;;;;;7.82;1.30;;;1.10;99.90;;;;;;4960394;28;88932;-29
2023/03/15 03:59:14;;;;;;;2.85;2.35;;;1.10;99.90;;;;;;4960000;28;89127;-32
2023/03/15 04:01:41;;;;;;;8.77;2.53;;;1.00;99.90;;;;;;4959574;28;90338;-34
2023/03/15 04:04:06;;;;;;;5.50;1.83;;;1.00;99.90;;;;;;4959460;28;89988;-30
2023/03/15 04:06:32;;;;;;;2.30;1.20;;;1.00;99.90;;;;;;4960188;28;90405;-29
2023/03/15 04:08:58;;;;;;;3.63;2.90;;;1.00;99.90;;;;;;4959693;28;89352;-29
2023/03/15 04:11:25;;;;;;;5.97;1.45;;;1.00;99.90;;;;;;4959735;28;90034;-29
2023/03/15 04:13:52;;;;;;;1.75;1.50;;;1.00;99.90;;;;;;4959035;28;89184;-30
2023/03/15 04:16:18;;;;;;;4.38;3.05;;;1.00;99.90;;;;;;4960521;28;89246;-33
2023/03/15 04:18:43;;;;;;;4.68;1.88;;;1.00;99.90;;;;;;4960886;28;89378;-31
2023/03/15 04:21:09;;;;;;;6.82;2.10;;;1.00;99.90;;;;;;4959324;28;90170;-31
2023/03/15 04:23:35;;;;;;;9.88;1.83;;;1.00;99.90;;;;;;4959471;28;90227;-31
2023/03/15 04:26:02;;;;;;;6.43;1.70;;;1.00;99.90;;;;;;4959951;28;89584;-32
2023/03/15 04:28:29;;;;;;;3.00;1.67;;;1.00;99.90;;;;;;4963685;28;89529;-32
2023/03/15 04:30:57;;;;;;;7.22;1.73;;;1.00;99.90;;;;;;4967571;28;90002;-29
2023/03/15 04:33:24;;;;;;;1.00;0.98;;;1.00;99.90;;;;;;4959820;28;88369;-30
2023/03/15 04:35:51;;;;;;;3.05;1.92;;;1.00;99.90;;;;;;4958562;28;91229;-30
2023/03/15 04:38:17;;;;;;;5.75;1.52;;;1.00;99.90;;;;;;4959476;28;88067;-33
2023/03/15 04:40:43;;;;;;;3.40;1.98;;;1.00;99.90;;;;;;4958656;28;90296;-32
2023/03/15 04:43:09;;;;;;;2.92;1.30;;;1.00;99.90;;;;;;4959090;28;89825;-29
2023/03/15 04:45:35;;;;;;;4.72;1.58;;;1.00;99.90;;;;;;4959459;28;88701;-29
2023/03/15 04:48:01;;;;;;;3.25;1.73;;;1.00;99.90;;;;;;4972663;28;89297;-29
2023/03/15 04:50:28;;;;;;;3.17;1.48;;;1.00;99.90;;;;;;4957880;28;92399;-32
2023/03/15 04:52:56;;;;;;;8.23;2.90;;;1.00;99.90;;;;;;4957580;28;91064;-31
2023/03/15 04:55:21;;;;;;;4.57;1.70;;;0.90;99.90;;;;;;4959107;28;90296;-31
2023/03/15 04:57:47;;;;;;;6.10;1.80;;;0.90;99.90;;;;;;4972084;28;89603;-30
2023/03/15 05:00:13;;;;;;;10.55;2.05;;;0.90;99.90;;;;;;4959900;28;88826;-27
2023/03/15 05:02:40;;;;;;;8.73;1.92;;;0.90;99.90;;;;;;4959945;28;88945;-28
2023/03/15 05:05:10;;;;;;;6.80;2.50;;;0.90;99.90;;;;;;4959291;28;90596;-32
2023/03/15 05:07:37;;;;;;;0.75;0.65;;;0.80;99.90;;;;;;4959533;28;87803;-30
2023/03/15 05:10:03;;;;;;;4.97;1.45;;;0.70;99.90;;;;;;4958262;28;91155;-31
2023/03/15 05:12:30;;;;;;;6.72;2.10;;;0.70;99.90;;;;;;4959340;28;88167;-30
2023/03/15 05:14:55;;;;;;;22.95;2.45;;;0.70;99.90;;;;;;4958392;28;89644;-30
2023/03/15 05:17:21;;;;;;;4.43;1.60;;;0.70;99.90;;;;;;4959357;28;90008;-29
2023/03/15 05:19:48;;;;;;;5.43;1.58;;;0.70;99.90;;;;;;4958914;28;89366;-28
2023/03/15 05:22:14;;;;;;;5.93;1.33;;;0.60;99.90;;;;;;4958308;28;89213;-31
2023/03/15 05:24:40;;;;;;;1.98;1.55;;;0.60;99.90;;;;;;4958897;28;90391;-32
2023/03/15 05:27:05;;;;;;;5.70;1.67;;;0.60;99.90;;;;;;4959586;28;88682;-30
2023/03/15 05:29:31;;;;;;;3.05;1.52;;;0.60;99.90;;;;;;4958908;28;90555;-32
2023/03/15 05:31:57;;;;;;;1.17;0.90;;;0.60;99.90;;;;;;4959258;28;89729;-28
2023/03/15 05:34:23;;;;;;;3.72;1.50;;;0.50;99.90;;;;;;4958419;28;89704;-30
2023/03/15 05:36:51;;;;;;;2.78;1.17;;;0.60;99.90;;;;;;4959031;28;88645;-30
2023/03/15 05:39:17;;;;;;;;;;;0.60;99.90;;;;;;4959213;28;90287;-29
2023/03/15 05:41:43;;;;;;;5.35;1.65;;;0.60;99.90;;;;;;4971616;28;91217;-31
2023/03/15 05:44:09;;;;;;;1.55;0.93;;;0.60;99.90;;;;;;4971759;28;90159;-32
2023/03/15 05:46:34;;;;;;;6.07;1.95;;;0.60;99.90;;;;;;4967465;28;89554;-31
2023/03/15 05:49:00;;;;;;;10.55;2.85;;;0.60;99.90;;;;;;4949280;28;90179;-31
2023/03/15 05:51:26;;;;;;;3.63;1.35;;;0.60;99.90;;;;;;4961472;28;89735;-31
2023/03/15 05:53:51;;;;;;;3.33;1.45;;;0.60;99.90;;;;;;4961459;28;89423;-28
2023/03/15 05:56:17;;;;;;;5.97;1.30;;;0.60;99.90;;;;;;4962171;28;89338;-32
2023/03/15 05:58:42;;;;;;;2.13;1.27;;;0.60;99.90;;;;;;4961482;28;90626;-30
2023/03/15 06:01:08;;;;;;;5.80;1.75;;;0.60;99.90;;;;;;4961839;28;89607;-31
2023/03/15 06:03:33;;;;;;;3.65;1.73;;;0.70;99.90;;;;;;4961800;28;89442;-30
2023/03/15 06:05:59;;;;;;;10.90;1.13;;;0.60;99.90;;;;;;4961460;28;90741;-33
2023/03/15 06:08:25;;;;;;;1.60;1.20;;;0.70;99.90;;;;;;4961725;28;90221;-31
2023/03/15 06:10:51;;;;;;;4.28;2.35;;;0.70;99.90;;;;;;4961096;28;89903;-31
2023/03/15 06:13:16;;;;;;;8.40;2.25;;;0.80;99.90;;;;;;4961835;28;89182;-29
2023/03/15 06:15:42;;;;;;;4.68;2.58;;;0.80;99.90;;;;;;4961406;28;88299;-30
2023/03/15 06:18:08;;;;;;;5.45;1.70;;;0.80;99.90;;;;;;4961373;28;90398;-30
2023/03/15 06:20:34;;;;;;;2.53;1.38;;;0.80;99.90;;;;;;4962111;28;89981;-30
2023/03/15 06:22:59;;;;;;;1.50;1.40;;;0.90;99.90;;;;;;4961665;28;90062;-29
2023/03/15 06:25:25;;;;;;;4.00;1.77;;;0.90;99.90;;;;;;4962092;28;89030;-30
2023/03/15 06:27:51;;;;;;;2.85;1.48;;;0.90;99.90;;;;;;4960447;28;90135;-32
2023/03/15 06:30:17;;;;;;;2.45;1.45;;;0.90;99.90;;;;;;4974064;28;90662;-29
2023/03/15 06:32:42;;;;;;;4.63;1.67;;;1.00;99.90;;;;;;4961217;28;92110;-30
2023/03/15 06:35:08;;;;;;;2.00;1.27;;;1.00;99.90;;;;;;4960893;28;89042;-30
2023/03/15 06:37:35;;;;;;;4.00;1.55;;;1.00;99.90;;;;;;4961528;28;89888;-30
2023/03/15 06:40:06;;;;;;;5.88;1.20;;;0.90;99.90;;;;;;4960227;28;87901;-32
2023/03/15 06:42:32;;;;;;;3.90;1.88;;;0.90;99.90;;;;;;4961126;28;90745;-28
2023/03/15 06:44:57;;;;;;;3.70;2.47;;;1.00;99.90;;;;;;4960811;28;88213;-30
2023/03/15 06:47:23;;;;;;;2.22;2.03;;;1.00;99.90;;;;;;4960849;28;90507;-31
2023/03/15 06:49:49;;;;;;;4.80;2.05;;;1.00;99.90;;;;;;4960211;28;89539;-31
2023/03/15 06:52:16;;;;;;;3.75;1.45;;;1.00;99.90;;;;;;4960939;28;89425;-28
2023/03/15 06:54:41;;;;;;;2.53;1.40;;;1.00;99.90;;;;;;4961005;28;89523;-31
2023/03/15 06:57:07;;;;;;;3.38;1.27;;;1.00;99.90;;;;;;4960128;28;90102;-29
2023/03/15 06:59:32;;;;;;;2.17;1.30;;;1.10;99.90;;;;;;4967777;28;89695;-29
2023/03/15 07:01:58;;;;;;;4.75;1.83;;;1.10;99.90;;;;;;4966458;28;89776;-30
2023/03/15 07:04:24;;;;;;;7.18;2.45;;;1.20;99.90;;;;;;4961132;28;89048;-29
2023/03/15 07:06:50;;;;;;;11.82;4.22;;;1.20;99.90;;;;;;4960683;28;88843;-31
2023/03/15 07:09:16;;;;;;;3.80;1.50;;;1.30;99.90;;;;;;4972744;28;89638;-29
2023/03/15 07:11:42;;;;;;;3.35;2.00;;;1.30;99.90;;;;;;4973515;28;89002;-30
2023/03/15 07:14:07;;;;;;;4.28;2.08;;;1.40;99.90;;;;;;4949385;28;87659;-28
2023/03/15 07:16:33;;;;;;;2.30;1.45;;;1.50;99.90;;;;;;4967151;28;90178;-29
2023/03/15 07:18:59;;;;;;;5.57;1.95;;;1.70;99.90;;;;;;4966356;28;90168;-28
2023/03/15 07:21:26;;;;;;;6.38;1.80;;;1.80;99.90;;;;;;4966161;28;90641;-31
2023/03/15 07:23:51;;;;;;;6.13;2.30;;;1.90;99.90;;;;;;4961240;28;89265;-29
2023/03/15 07:26:17;;;;;;;8.27;1.42;;;2.10;99.90;;;;;;4959963;28;90359;-31
2023/03/15 07:28:43;;;;;;;5.50;1.55;;;2.20;99.90;;;;;;4965788;28;89633;-30
2023/03/15 07:31:10;;;;;;;4.80;1.77;;;2.40;99.90;;;;;;4967090;28;91197;-29
2023/03/15 07:33:36;;;;;;;4.22;1.65;;;2.50;99.90;;;;;;4960649;28;88540;-28
2023/03/15 07:36:04;;;;;;;3.83;1.67;;;2.70;99.90;;;;;;4961069;28;90196;-31
2023/03/15 07:38:30;;;;;;;3.83;1.38;;;2.90;99.90;;;;;;4960551;28;90051;-31
2023/03/15 07:40:57;;;;;;;4.10;2.00;;;3.10;99.90;;;;;;4959324;28;89576;-30
2023/03/15 07:43:23;;;;;;;4.78;1.60;;;3.20;99.90;;;;;;4959631;28;88742;-32
2023/03/15 07:45:49;;;;;;;2.03;1.48;;;3.40;99.90;;;;;;4959659;28;89121;-31
2023/03/15 07:48:15;;;;;;;11.43;2.20;;;3.60;99.90;;;;;;4966400;28;89851;-30
2023/03/15 07:50:41;;;;;;;1.60;1.50;;;3.70;99.90;;;;;;4977715;28;90103;-33
2023/03/15 07:53:07;;;;;;;2.88;0.95;;;3.90;99.90;;;;;;4975586;28;89381;-31
2023/03/15 07:55:34;;;;;;;8.52;2.42;;;4.10;99.90;;;;;;4964603;28;90258;-32
2023/03/15 07:58:00;;;;;;;5.97;1.90;;;4.30;99.90;;;;;;4979916;28;89087;-30
2023/03/15 08:00:26;;;;;;;2.20;1.40;;;4.30;99.90;;;;;;4965829;28;90787;-29
2023/03/15 08:02:52;;;;;;;1.52;0.80;;;4.60;99.90;;;;;;4959723;28;89079;-30
2023/03/15 08:05:18;;;;;;;4.82;1.30;;;4.70;99.90;;;;;;4972478;28;90160;-30
2023/03/15 08:07:47;;;;;;;2.50;1.88;;;4.90;99.90;;;;;;4958587;28;90710;-30
2023/03/15 08:10:14;;;;;;;5.90;1.90;;;5.00;99.90;;;;;;4957956;28;90595;-31
2023/03/15 08:12:41;;;;;;;4.38;1.70;;;5.10;99.90;;;;;;4963153;28;89176;-31
2023/03/15 08:15:12;;;;;;;1.70;1.58;;;5.30;99.90;;;;;;4962739;28;90243;-30
2023/03/15 08:17:39;;;;;;;3.72;1.40;;;5.50;99.90;;;;;;4978539;28;90036;-31
2023/03/15 08:20:08;;;;;;;5.47;1.27;;;5.50;99.90;;;;;;4966821;28;89986;-30
2023/03/15 08:22:34;;;;;;;4.63;1.40;;;5.70;99.90;;;;;;4959018;28;89356;-31
2023/03/15 08:25:00;;;;;;;2.17;1.50;;;5.80;99.90;;;;;;4968264;28;89562;-32
2023/03/15 08:27:25;;;;;;;2.35;1.30;;;6.00;99.90;;;;;;4959446;28;89537;-30
2023/03/15 08:29:51;;;;;;;18.05;2.05;;;6.30;99.90;;;;;;4958876;28;89388;-32
2023/03/15 08:32:18;;;;;;;7.10;1.80;;;6.20;99.90;;;;;;4967280;28;90032;-31
2023/03/15 08:34:44;;;;;;;6.75;2.00;;;6.30;99.90;;;;;;4962729;28;89872;-31
2023/03/15 08:37:10;;;;;;;6.20;3.03;;;6.60;99.90;;;;;;4958996;28;90671;-32
2023/03/15 08:39:37;;;;;;;5.78;2.70;;;6.90;99.90;;;;;;4970411;28;89400;-31
2023/03/15 08:42:04;;;;;;;4.00;1.30;;;6.40;99.90;;;;;;4967438;28;89320;-30
2023/03/15 08:44:29;;;;;;;9.50;2.08;;;6.70;99.90;;;;;;4963836;28;89184;-28
2023/03/15 08:46:55;;;;;;;5.78;2.55;;;6.90;99.90;;;;;;4969446;28;89410;-33
2023/03/15 08:49:21;;;;;;;3.53;1.63;;;7.10;99.90;;;;;;4959038;28;89702;-30
2023/03/15 08:51:46;;;;;;;3.15;1.70;;;7.40;99.90;;;;;;4958664;28;87706;-33
2023/03/15 08:54:13;;;;;;;5.93;1.92;;;7.70;99.90;;;;;;4965166;28;90161;-30
2023/03/15 08:56:40;;;;;;;2.70;2.08;;;7.70;99.90;;;;;;4966405;28;90060;-29
2023/03/15 08:59:06;;;;;;;12.23;2.65;;;7.60;99.90;;;;;;4957803;28;90280;-31
2023/03/15 09:01:32;;;;;;;6.32;2.42;;;7.60;99.90;;;;;;4958603;28;89514;-30
2023/03/15 09:03:58;;;;;;;7.57;2.10;;;7.70;99.90;;;;;;4958650;28;88816;-30
2023/03/15 09:06:24;;;;;;;11.57;1.83;;;7.80;99.90;;;;;;4958880;28;89755;-30
2023/03/15 09:08:49;;;;;;;5.97;2.60;;;7.60;99.90;;;;;;4956979;28;89686;-32
2023/03/15 09:11:15;;;;;;;3.83;2.10;;;7.80;99.90;;;;;;4959261;28;89964;-29
2023/03/15 09:13:40;;;;;;;5.75;2.25;;;8.10;99.90;;;;;;4961255;28;90285;-30
2023/03/15 09:16:06;;;;;;;7.63;2.17;;;8.00;99.90;;;;;;4968765;28;90040;-31
2023/03/15 09:18:32;;;;;;;13.68;2.45;;;8.30;99.90;;;;;;4959517;28;89228;-28
2023/03/15 09:20:58;;;;;;;7.03;2.13;;;8.10;99.90;;;;;;4959846;28;90341;-32
2023/03/15 09:23:24;;;;;;;4.78;1.98;;;8.20;99.90;;;;;;4962622;28;89893;-30
2023/03/15 09:25:49;;;;;;;7.75;2.58;;;8.30;99.90;;;;;;4962392;28;90876;-28
2023/03/15 09:28:15;;;;;;;2.00;1.73;;;8.30;99.90;;;;;;4965155;28;89501;-32
2023/03/15 09:30:41;;;;;;;8.43;1.65;;;8.50;99.90;;;;;;4972657;28;88196;-30
2023/03/15 09:33:07;;;;;;;2.70;1.80;;;8.60;99.90;;;;;;4961834;28;91212;-30
2023/03/15 09:35:33;;;;;;;5.03;1.88;;;8.40;99.90;;;;;;4962573;28;89586;-32
2023/03/15 09:37:59;;;;;;;3.80;1.55;;;8.60;99.90;;;;;;4964666;28;89414;-32
2023/03/15 09:40:31;;;;;;;4.00;2.15;;;8.90;99.90;;;;;;4972714;28;90328;-29
2023/03/15 09:43:11;;;;;;;3.78;1.63;;;8.70;99.90;;;;;;4974309;28;90453;-30
2023/03/15 09:46:20;;;;;;;9.63;2.20;;;8.30;99.90;;;;;;4961280;28;90840;-32
2023/03/15 09:48:51;;;;;;;3.65;1.67;;;8.60;99.90;;;;;;4972238;28;90744;-28
2023/03/15 09:51:27;;;;;;;3.83;2.08;;;8.70;99.90;;;;;;4963448;28;89957;-29
2023/03/15 09:53:57;;;;;;;5.03;2.28;;;8.80;99.90;;;;;;4961225;28;91237;-31
2023/03/15 09:56:24;;;;;;;4.07;1.95;;;8.90;99.90;;;;;;4961900;28;88915;-28
2023/03/15 09:58:53;;;;;;;3.47;1.30;;;9.00;92.30;;;;;;4961445;28;88708;-29
2023/03/15 10:01:25;;;;;;;2.63;1.00;;;9.20;99.90;;;;;;4961855;28;89117;-31
2023/03/15 10:03:52;;;;;;;1.75;0.93;;;9.20;99.90;;;;;;4963065;28;89293;-30
2023/03/15 10:06:29;;;;;;;5.03;1.30;;;9.20;99.00;;;;;;4971829;28;89650;-32
2023/03/15 10:09:00;;;;;;;5.75;1.63;;;9.50;99.90;;;;;;4974950;28;89597;-31
2023/03/15 10:11:56;;;;;;;1.77;0.90;;;9.10;99.90;;;;;;4961570;28;90083;-29
2023/03/15 10:14:41;;;;;;;5.95;1.60;;;9.00;84.60;;;;;;4962611;28;90595;-30
2023/03/15 10:17:14;;;;;;;9.57;1.98;;;9.20;92.80;;;;;;4961267;28;90232;-29
2023/03/15 10:19:50;;;;;;;7.53;2.28;;;9.20;88.00;;;;;;4959919;28;90664;-32
2023/03/15 10:22:26;;;;;;;3.15;2.28;;;8.90;96.40;;;;;;4962286;28;89507;-29
2023/03/15 10:25:00;;;;;;;4.93;1.77;;;9.10;94.70;;;;;;4973825;28;89838;-30
2023/03/15 10:28:01;;;;;;;5.35;2.15;;;9.30;81.30;;;;;;4961011;28;90353;-32
2023/03/15 10:30:33;;;;;;;5.75;1.40;;;9.20;83.70;;;;;;4929325;28;90148;-30
2023/03/15 10:33:04;;;;;;;4.88;1.42;;;9.20;80.80;;;;;;4960110;28;89508;-29
2023/03/15 10:35:30;;;;;;;3.22;1.30;;;9.40;84.10;;;;;;4961507;28;89896;-31
2023/03/15 10:37:57;;;;;;;6.95;2.28;;;9.60;86.50;;;;;;4960137;28;90513;-30
2023/03/15 10:41:04;;;;;;;2.85;1.40;;;9.80;91.70;;;;;;4961281;28;90686;-32
2023/03/15 10:43:34;;;;;;;4.35;1.50;;;9.90;86.60;;;;;;4889180;28;89302;-32
2023/03/15 10:46:02;;;;;;;4.22;1.15;;;9.70;90.30;;;;;;4899880;28;90619;-30
2023/03/15 10:48:30;;;;;;;;;;;9.80;73.90;;;;;;4932875;28;89861;-31
2023/03/15 10:50:56;;;;;;;2.92;1.50;;;9.60;77.40;;;;;;4961627;28;88911;-29
2023/03/15 10:53:24;;;;;;;2.83;1.02;;;9.80;76.70;;;;;;4960865;28;89037;-31
2023/03/15 10:56:11;;;;;;;9.27;1.67;;;9.60;77.30;;;;;;4963381;28;88934;-31
2023/03/15 10:58:45;;;;;;;3.63;1.52;;;9.80;80.20;;;;;;4967751;28;88969;-30
2023/03/15 11:01:36;;;;;;;3.63;1.90;;;9.60;80.40;;;;;;4960952;28;90007;-31
2023/03/15 11:04:23;;;;;;;3.03;1.50;;;9.60;79.10;;;;;;4972837;28;89206;-29
2023/03/15 11:06:57;;;;;;;3.50;2.30;;;9.90;83.90;;;;;;4959825;28;90044;-30
2023/03/15 11:09:25;;;;;;;7.55;1.15;;;10.10;84.00;;;;;;4960915;28;89497;-31
2023/03/15 11:11:52;;;;;;;1.80;1.30;;;10.10;83.80;;;;;;4960432;28;89314;-29
2023/03/15 11:14:18;;;;;;;3.22;1.27;;;10.10;80.90;;;;;;4961023;28;87807;-30
2023/03/15 11:16:51;;;;;;;2.60;1.67;;;9.80;76.20;;;;;;4961565;28;90013;-31
2023/03/15 11:19:21;;;;;;;4.47;1.55;;;9.90;75.80;;;;;;4970762;28;89235;-31
2023/03/15 11:21:49;;;;;;;10.80;1.83;;;10.00;80.20;;;;;;4963090;28;90844;-29
2023/03/15 11:24:26;;;;;;;1.42;1.08;;;10.10;78.70;;;;;;4969860;28;88853;-29
2023/03/15 11:26:53;;;;;;;4.43;1.65;;;10.30;77.30;;;;;;4960183;28;89357;-32
2023/03/15 11:29:34;;;;;;;1.92;1.40;;;10.20;76.20;;;;;;4960421;28;90397;-28
2023/03/15 11:32:02;;;;;;;9.55;2.28;;;10.20;73.90;;;;;;4959943;28;88483;-29
2023/03/15 11:34:43;;;;;;;10.07;2.05;;;10.30;75.90;;;;;;4960841;28;89560;-32
2023/03/15 11:37:34;;;;;;;2.70;1.73;;;10.30;73.40;;;;;;4960521;28;90453;-32
2023/03/15 11:40:08;;;;;;;4.35;1.92;;;10.40;73.20;;;;;;4947336;28;89673;-31
2023/03/15 11:42:42;;;;;;;3.60;1.50;;;10.60;72.90;;;;;;4960937;28;89587;-30
2023/03/15 11:45:28;;;;;;;4.10;1.15;;;10.80;75.10;;;;;;4971917;28;89242;-29
2023/03/15 11:47:58;;;;;;;8.82;1.30;;;10.90;73.40;;;;;;4960990;28;90634;-30
2023/03/15 11:50:25;;;;;;;2.88;1.80;;;10.80;71.70;;;;;;5001998;22;89157;-30
2023/03/15 11:52:51;;;;;;;5.97;1.60;;;10.70;70.80;;;;;;4944581;28;89787;-29
2023/03/15 11:55:24;;;;;;;2.22;1.50;;;10.80;74.00;;;;;;4960166;28;89759;-31
2023/03/15 11:57:52;;;;;;;5.63;1.63;;;10.80;74.00;;;;;;4961470;28;88760;-30
2023/03/15 12:00:27;;;;;;;4.03;1.58;;;10.70;71.90;;;;;;4960303;28;89060;-30
2023/03/15 12:02:55;;;;;;;0.77;0.77;;;10.30;73.90;;;;;;4959945;28;89671;-27
2023/03/15 12:05:41;;;;;;;1.98;1.50;;;10.10;72.30;;;;;;4962250;28;89287;-33
2023/03/15 12:08:42;;;;;;;3.92;1.17;;;10.00;73.60;;;;;;4962137;28;90268;-30
2023/03/15 12:11:23;;;;;;;3.58;1.55;;;10.10;71.00;;;;;;4881082;28;90186;-31
2023/03/15 12:13:57;;;;;;;4.07;1.65;;;10.00;72.50;;;;;;4950823;28;90418;-31
2023/03/15 12:16:43;;;;;;;2.50;1.63;;;10.20;74.30;;;;;;4962186;28;88526;-31
2023/03/15 12:19:15;;;;;;;16.50;1.70;;;10.30;76.00;;;;;;4960188;28;89306;-30
2023/03/15 12:21:45;;;;;;;5.38;1.58;;;10.10;74.80;;;;;;4962363;28;90896;-32
2023/03/15 12:24:35;;;;;;;5.13;1.50;;;9.80;70.50;;;;;;4963390;28;91289;-29
2023/03/15 12:27:13;;;;;;;2.75;1.75;;;9.50;71.40;;;;;;4959772;28;89761;-33
2023/03/15 12:29:40;;;;;;;3.92;1.08;;;9.40;71.80;;;;;;4972124;28;89898;-33
2023/03/15 12:32:17;;;;;;;4.78;1.38;;;9.40;76.50;;;;;;4960154;28;90390;-30
2023/03/15 12:34:49;;;;;;;3.67;1.27;;;9.50;73.20;;;;;;4959015;28;89622;-30
2023/03/15 12:37:31;;;;;;;1.98;1.83;;;9.70;69.80;;;;;;4969781;28;88974;-29
2023/03/15 12:40:15;;;;;;;3.13;1.52;;;9.80;75.00;;;;;;4960393;28;90289;-30
2023/03/15 12:42:40;;;;;;;4.63;1.83;;;9.60;72.10;;;;;;4959435;28;90340;-32
2023/03/15 12:45:15;;;;;;;3.60;1.48;;;9.10;71.50;;;;;;4959188;28;89559;-31
2023/03/15 12:47:49;;;;;;;2.83;1.60;;;9.20;75.30;;;;;;4961433;28;91013;-32
2023/03/15 12:50:35;;;;;;;3.40;1.27;;;9.00;76.20;;;;;;4967545;28;90001;-30
2023/03/15 12:53:14;;;;;;;2.58;1.80;;;9.10;69.80;;;;;;4959260;28;89369;-29
2023/03/15 12:55:40;;;;;;;2.33;1.33;;;8.80;70.00;;;;;;4958213;28;89103;-33
2023/03/15 12:58:10;;;;;;;1.88;1.48;;;9.10;75.20;;;;;;4959263;28;89566;-30
2023/03/15 13:00:37;;;;;;;4.50;1.63;;;9.00;69.80;;;;;;4961022;28;91188;-28
2023/03/15 13:03:15;;;;;;;6.50;2.08;;;8.80;71.10;;;;;;4957805;28;89591;-32
2023/03/15 13:05:49;;;;;;;5.50;1.50;;;8.90;70.50;;;;;;4957332;28;88571;-31